Time;durP1;ratioP1;P1;durP2;ratioP2;P2;SDS_P1;SDS_P2;PMS_P1;PMS_P2;Temp;Humidity;BMP_temperature;BMP_pressure;BME280_temperature;BME280_humidity;BME280_pressure;Samples;Min_cycle;Max_cycle;Signal;HPM_P1;HPM_P2
2021/09/04 00:00:46;;;;;;;21.50;9.60;;;;;;;;;;5132186;27;20019;-71
2021/09/04 00:03:11;;;;;;;21.95;10.48;;;;;;;;;;5132198;27;20025;-71
2021/09/04 00:05:37;;;;;;;19.37;8.77;;;;;;;;;;5132262;27;20035;-72
2021/09/04 00:08:02;;;;;;;20.73;9.98;;;;;;;;;;5132611;27;20340;-71
2021/09/04 00:10:27;;;;;;;20.77;9.68;;;;;;;;;;5132382;27;20102;-72
2021/09/04 00:12:52;;;;;;;19.55;10.32;;;;;;;;;;5131686;27;20065;-72
2021/09/04 00:15:17;;;;;;;19.48;10.50;;;;;;;;;;5132283;27;20019;-71
2021/09/04 00:17:43;;;;;;;15.97;9.43;;;;;;;;;;5133169;27;20030;-72
2021/09/04 00:20:08;;;;;;;23.80;11.02;;;;;;;;;;5132739;27;20252;-71
2021/09/04 00:22:34;;;;;;;18.63;10.07;;;;;;;;;;5131591;27;20027;-71
2021/09/04 00:24:59;;;;;;;17.67;9.68;;;;;;;;;;5131821;27;20472;-71
2021/09/04 00:27:24;;;;;;;19.73;10.23;;;;;;;;;;5131906;27;20461;-71
2021/09/04 00:29:49;;;;;;;16.67;9.57;;;;;;;;;;5131735;27;20324;-72
2021/09/04 00:32:14;;;;;;;24.63;10.70;;;;;;;;;;5131808;27;20049;-71
2021/09/04 00:34:40;;;;;;;16.97;9.87;;;;;;;;;;5131543;27;20265;-71
2021/09/04 00:37:05;;;;;;;20.50;10.30;;;;;;;;;;5131932;27;20256;-72
2021/09/04 00:39:30;;;;;;;17.23;8.77;;;;;;;;;;5132358;27;20711;-71
2021/09/04 00:41:55;;;;;;;17.42;10.13;;;;;;;;;;5131500;27;20473;-71
2021/09/04 00:44:21;;;;;;;18.30;9.95;;;;;;;;;;5131804;27;20068;-71
2021/09/04 00:46:47;;;;;;;20.52;10.50;;;;;;;;;;5131298;27;20023;-71
2021/09/04 00:49:12;;;;;;;16.27;9.35;;;;;;;;;;5131769;27;20007;-72
2021/09/04 00:51:38;;;;;;;16.90;10.32;;;;;;;;;;5131436;27;20491;-72
2021/09/04 00:54:04;;;;;;;17.33;9.85;;;;;;;;;;5131406;27;20019;-72
2021/09/04 00:56:29;;;;;;;16.42;9.77;;;;;;;;;;5131929;27;20080;-71
2021/09/04 00:58:55;;;;;;;19.77;9.65;;;;;;;;;;5131343;28;20059;-71
2021/09/04 01:01:20;;;;;;;16.80;9.80;;;;;;;;;;5130634;27;20015;-71
2021/09/04 01:03:45;;;;;;;19.53;11.00;;;;;;;;;;5131459;28;20268;-71
2021/09/04 01:06:11;;;;;;;17.35;9.25;;;;;;;;;;5131471;28;20328;-71
2021/09/04 01:08:36;;;;;;;16.40;9.38;;;;;;;;;;5131469;28;20019;-71
2021/09/04 01:11:02;;;;;;;25.25;11.02;;;;;;;;;;5131742;28;20015;-71
2021/09/04 01:13:27;;;;;;;21.83;10.77;;;;;;;;;;5112786;28;20019;-71
2021/09/04 01:15:52;;;;;;;20.07;10.30;;;;;;;;;;5131499;28;20734;-71
2021/09/04 01:18:17;;;;;;;21.80;10.13;;;;;;;;;;5131783;28;20340;-71
2021/09/04 01:20:44;;;;;;;18.90;10.70;;;;;;;;;;5131336;28;20026;-71
2021/09/04 01:23:09;;;;;;;19.17;9.82;;;;;;;;;;5130665;28;20091;-71
2021/09/04 01:25:34;;;;;;;18.27;10.90;;;;;;;;;;5131537;28;20509;-71
2021/09/04 01:28:01;;;;;;;21.58;10.60;;;;;;;;;;5131559;28;20019;-71
2021/09/04 01:30:27;;;;;;;18.52;10.35;;;;;;;;;;5131304;28;20016;-71
2021/09/04 01:32:52;;;;;;;15.90;10.35;;;;;;;;;;5130868;28;20026;-71
2021/09/04 01:35:19;;;;;;;16.55;9.88;;;;;;;;;;5131302;28;20023;-71
2021/09/04 01:37:45;;;;;;;17.10;10.68;;;;;;;;;;5131130;28;20015;-72
2021/09/04 01:40:11;;;;;;;20.25;10.57;;;;;;;;;;5131302;28;20011;-71
2021/09/04 01:42:36;;;;;;;16.60;9.85;;;;;;;;;;5130806;28;20042;-71
2021/09/04 01:45:02;;;;;;;20.67;9.98;;;;;;;;;;5131263;28;20050;-71
2021/09/04 01:47:27;;;;;;;28.77;11.52;;;;;;;;;;5131148;28;20011;-71
2021/09/04 01:49:53;;;;;;;23.33;11.48;;;;;;;;;;5131118;28;20394;-71
2021/09/04 01:52:19;;;;;;;22.73;11.20;;;;;;;;;;5131021;28;20027;-71
2021/09/04 01:54:44;;;;;;;17.10;10.52;;;;;;;;;;5130927;28;20357;-72
2021/09/04 01:57:10;;;;;;;20.93;11.10;;;;;;;;;;5131326;28;20309;-71
2021/09/04 01:59:37;;;;;;;21.15;11.77;;;;;;;;;;5131064;28;20310;-71
2021/09/04 02:02:02;;;;;;;20.40;11.60;;;;;;;;;;5130823;28;20074;-71
2021/09/04 02:04:27;;;;;;;31.08;11.10;;;;;;;;;;5130955;28;20047;-71
2021/09/04 02:06:52;;;;;;;21.25;10.57;;;;;;;;;;5130763;28;20064;-71
2021/09/04 02:09:18;;;;;;;21.77;10.57;;;;;;;;;;5130984;28;20035;-71
2021/09/04 02:11:43;;;;;;;16.00;10.20;;;;;;;;;;5131064;27;20244;-71
2021/09/04 02:14:08;;;;;;;19.17;9.68;;;;;;;;;;5116287;27;20287;-71
2021/09/04 02:16:33;;;;;;;23.40;10.13;;;;;;;;;;5134719;27;20019;-71
2021/09/04 02:18:58;;;;;;;19.67;11.27;;;;;;;;;;5134278;27;20263;-71
2021/09/04 02:21:23;;;;;;;19.07;11.97;;;;;;;;;;5134448;27;20914;-71
2021/09/04 02:23:49;;;;;;;28.83;10.83;;;;;;;;;;5134007;27;20269;-71
2021/09/04 02:26:14;;;;;;;20.40;10.77;;;;;;;;;;5134252;27;20245;-71
2021/09/04 02:28:39;;;;;;;18.02;10.98;;;;;;;;;;5134091;27;20282;-71
2021/09/04 02:31:04;;;;;;;19.02;10.40;;;;;;;;;;5134386;27;20115;-71
2021/09/04 02:33:29;;;;;;;21.17;11.30;;;;;;;;;;5134490;27;20019;-71
2021/09/04 02:35:55;;;;;;;20.17;12.00;;;;;;;;;;5134183;27;20257;-71
2021/09/04 02:38:20;;;;;;;23.63;12.67;;;;;;;;;;5134178;27;20313;-71
2021/09/04 02:40:45;;;;;;;22.50;12.07;;;;;;;;;;5133913;27;20735;-71
2021/09/04 02:43:10;;;;;;;21.17;11.00;;;;;;;;;;5133904;27;20310;-72
2021/09/04 02:45:35;;;;;;;20.20;11.87;;;;;;;;;;5134146;27;20106;-71
2021/09/04 02:48:00;;;;;;;22.00;11.57;;;;;;;;;;5133875;27;20261;-71
2021/09/04 02:50:26;;;;;;;19.50;11.53;;;;;;;;;;5133926;27;20249;-71
2021/09/04 02:52:51;;;;;;;18.65;11.05;;;;;;;;;;5133337;27;20272;-71
2021/09/04 02:55:16;;;;;;;17.67;10.95;;;;;;;;;;5133567;27;20527;-71
2021/09/04 02:57:41;;;;;;;20.63;12.00;;;;;;;;;;5114971;27;20401;-71
2021/09/04 03:00:07;;;;;;;21.93;11.83;;;;;;;;;;5133644;27;20097;-71
2021/09/04 03:02:32;;;;;;;20.40;10.43;;;;;;;;;;5134233;27;20276;-71
2021/09/04 03:04:57;;;;;;;23.43;11.37;;;;;;;;;;5135563;27;20023;-71
2021/09/04 03:07:22;;;;;;;20.27;11.18;;;;;;;;;;5133906;27;20332;-71
2021/09/04 03:09:48;;;;;;;23.43;11.60;;;;;;;;;;5133615;27;20022;-71
2021/09/04 03:12:13;;;;;;;17.85;12.05;;;;;;;;;;5133072;27;20253;-71
2021/09/04 03:14:39;;;;;;;20.57;11.67;;;;;;;;;;5133096;27;20027;-71
2021/09/04 03:17:04;;;;;;;27.23;12.57;;;;;;;;;;5133308;27;20253;-71
2021/09/04 03:19:29;;;;;;;17.90;11.98;;;;;;;;;;5133277;27;20031;-71
2021/09/04 03:21:54;;;;;;;18.40;11.57;;;;;;;;;;5132734;27;20411;-71
2021/09/04 03:24:19;;;;;;;21.00;12.68;;;;;;;;;;5132220;27;20340;-71
2021/09/04 03:26:45;;;;;;;22.17;11.63;;;;;;;;;;5133069;27;20102;-71
2021/09/04 03:29:10;;;;;;;17.13;11.13;;;;;;;;;;5133266;27;20112;-71
2021/09/04 03:31:35;;;;;;;16.77;11.53;;;;;;;;;;5132868;27;20245;-71
2021/09/04 03:34:00;;;;;;;21.00;11.48;;;;;;;;;;5132793;27;20257;-71
2021/09/04 03:36:25;;;;;;;20.37;11.43;;;;;;;;;;5132868;27;20026;-71
2021/09/04 03:38:51;;;;;;;18.77;11.25;;;;;;;;;;5132700;27;20742;-71
2021/09/04 03:41:16;;;;;;;22.60;11.63;;;;;;;;;;5132810;27;20454;-71
2021/09/04 03:43:41;;;;;;;23.60;12.07;;;;;;;;;;5132740;27;20015;-71
2021/09/04 03:46:06;;;;;;;22.52;12.05;;;;;;;;;;5132693;27;20058;-71
2021/09/04 03:48:33;;;;;;;21.00;11.63;;;;;;;;;;5132878;27;20097;-71
2021/09/04 03:50:58;;;;;;;20.05;11.30;;;;;;;;;;5132608;27;20286;-71
2021/09/04 03:53:23;;;;;;;18.00;11.43;;;;;;;;;;5132063;27;20072;-71
2021/09/04 03:55:49;;;;;;;19.47;11.23;;;;;;;;;;5132213;27;20738;-71
2021/09/04 03:58:14;;;;;;;24.30;12.13;;;;;;;;;;5132783;27;20265;-71
2021/09/04 04:00:39;;;;;;;19.03;11.33;;;;;;;;;;5132191;27;20302;-71
2021/09/04 04:03:04;;;;;;;17.58;10.55;;;;;;;;;;5132246;27;20298;-71
2021/09/04 04:05:29;;;;;;;20.80;11.67;;;;;;;;;;5132455;27;20410;-71
2021/09/04 04:07:54;;;;;;;21.80;12.38;;;;;;;;;;5132386;27;20260;-71
2021/09/04 04:10:20;;;;;;;17.97;11.60;;;;;;;;;;5113895;27;20015;-71
2021/09/04 04:12:45;;;;;;;26.90;13.07;;;;;;;;;;5131820;27;20719;-71
2021/09/04 04:15:11;;;;;;;25.05;13.73;;;;;;;;;;5132105;27;20269;-71
2021/09/04 04:17:36;;;;;;;22.75;12.65;;;;;;;;;;5132146;27;20079;-71
2021/09/04 04:20:02;;;;;;;26.02;12.75;;;;;;;;;;5132425;27;20019;-71
2021/09/04 04:22:27;;;;;;;26.67;13.90;;;;;;;;;;5132101;27;20381;-71
2021/09/04 04:24:52;;;;;;;22.10;12.60;;;;;;;;;;5131944;27;20035;-71
2021/09/04 04:27:17;;;;;;;23.17;12.07;;;;;;;;;;5132020;27;20292;-71
2021/09/04 04:29:43;;;;;;;29.58;12.60;;;;;;;;;;5131868;27;20253;-71
2021/09/04 04:32:08;;;;;;;22.53;11.60;;;;;;;;;;5131786;27;20026;-71
2021/09/04 04:34:33;;;;;;;29.23;13.25;;;;;;;;;;5131316;27;20256;-71
2021/09/04 04:36:58;;;;;;;24.67;12.33;;;;;;;;;;5131961;27;20118;-71
2021/09/04 04:39:23;;;;;;;19.87;12.47;;;;;;;;;;5131811;27;20253;-71
2021/09/04 04:41:48;;;;;;;20.70;12.73;;;;;;;;;;5131610;27;20642;-71
2021/09/04 04:44:14;;;;;;;19.70;11.53;;;;;;;;;;5131524;27;20345;-72
2021/09/04 04:46:39;;;;;;;23.30;12.13;;;;;;;;;;5131688;27;20620;-71
2021/09/04 04:49:04;;;;;;;27.73;12.83;;;;;;;;;;5131720;27;20015;-71
2021/09/04 04:51:29;;;;;;;28.17;12.67;;;;;;;;;;5131561;27;20726;-71
2021/09/04 04:53:54;;;;;;;21.70;11.77;;;;;;;;;;5131435;27;20289;-71
2021/09/04 04:56:20;;;;;;;28.77;11.70;;;;;;;;;;5131279;27;20027;-71
2021/09/04 04:58:45;;;;;;;20.60;11.23;;;;;;;;;;5131752;28;20257;-71
2021/09/04 05:01:10;;;;;;;24.10;12.93;;;;;;;;;;5131778;28;20343;-71
2021/09/04 05:03:35;;;;;;;21.47;12.27;;;;;;;;;;5131348;28;20256;-71
2021/09/04 05:06:00;;;;;;;24.33;12.90;;;;;;;;;;5131627;28;20742;-71
2021/09/04 05:08:26;;;;;;;22.40;12.88;;;;;;;;;;5131422;28;20022;-71
2021/09/04 05:10:51;;;;;;;17.83;11.32;;;;;;;;;;5131551;28;20445;-71
2021/09/04 05:13:16;;;;;;;19.70;12.33;;;;;;;;;;5131184;28;20022;-71
2021/09/04 05:15:41;;;;;;;29.23;12.10;;;;;;;;;;5131344;28;20606;-71
2021/09/04 05:18:07;;;;;;;16.77;11.20;;;;;;;;;;5131361;28;20276;-71
2021/09/04 05:20:32;;;;;;;25.77;12.98;;;;;;;;;;5131314;28;20084;-71
2021/09/04 05:22:57;;;;;;;20.70;11.70;;;;;;;;;;5130930;28;20031;-71
2021/09/04 05:25:22;;;;;;;22.67;12.27;;;;;;;;;;5131121;28;20400;-71
2021/09/04 05:27:48;;;;;;;21.40;11.45;;;;;;;;;;5131439;28;20011;-71
2021/09/04 05:30:13;;;;;;;19.97;11.30;;;;;;;;;;5112774;28;20459;-71
2021/09/04 05:32:38;;;;;;;19.88;12.35;;;;;;;;;;5131197;28;20257;-71
2021/09/04 05:35:04;;;;;;;21.73;12.20;;;;;;;;;;5131523;28;20023;-72
2021/09/04 05:37:29;;;;;;;20.88;12.00;;;;;;;;;;5131446;28;20270;-71
2021/09/04 05:39:55;;;;;;;21.38;12.15;;;;;;;;;;5131508;28;20031;-71
2021/09/04 05:42:20;;;;;;;17.48;11.23;;;;;;;;;;5130777;28;20023;-71
2021/09/04 05:44:45;;;;;;;25.05;12.60;;;;;;;;;;5131138;28;20024;-71
2021/09/04 05:47:11;;;;;;;20.40;11.87;;;;;;;;;;5132279;27;20015;-71
2021/09/04 05:49:36;;;;;;;21.27;12.15;;;;;;;;;;5137851;27;20327;-71
2021/09/04 05:52:01;;;;;;;22.27;12.07;;;;;;;;;;5136762;27;20031;-73
2021/09/04 05:54:26;;;;;;;20.40;11.70;;;;;;;;;;5134777;27;20019;-71
2021/09/04 05:56:51;;;;;;;22.25;11.90;;;;;;;;;;5134848;27;20029;-71
2021/09/04 05:59:17;;;;;;;23.40;11.50;;;;;;;;;;5116155;27;20021;-71
2021/09/04 06:01:42;;;;;;;21.03;11.87;;;;;;;;;;5134670;27;20272;-71
2021/09/04 06:04:07;;;;;;;20.98;11.18;;;;;;;;;;5134392;27;20289;-71
2021/09/04 06:06:32;;;;;;;21.27;11.00;;;;;;;;;;5134613;27;20050;-71
2021/09/04 06:08:59;;;;;;;19.27;11.53;;;;;;;;;;5134622;27;20034;-71
2021/09/04 06:11:24;;;;;;;23.58;11.57;;;;;;;;;;5134523;27;20268;-71
2021/09/04 06:13:49;;;;;;;18.55;11.27;;;;;;;;;;5134555;27;20409;-71
2021/09/04 06:16:14;;;;;;;19.53;11.33;;;;;;;;;;5134607;27;20019;-71
2021/09/04 06:18:39;;;;;;;28.40;11.63;;;;;;;;;;5134508;27;20723;-71
2021/09/04 06:21:05;;;;;;;20.88;11.68;;;;;;;;;;5134363;27;20073;-70
2021/09/04 06:23:30;;;;;;;17.30;11.53;;;;;;;;;;5134231;27;20049;-71
2021/09/04 06:25:55;;;;;;;24.20;12.98;;;;;;;;;;5134435;27;20249;-71
2021/09/04 06:28:20;;;;;;;21.63;13.00;;;;;;;;;;5134094;27;20382;-71
2021/09/04 06:30:45;;;;;;;21.13;13.23;;;;;;;;;;5134217;27;20248;-71
2021/09/04 06:33:11;;;;;;;23.47;13.17;;;;;;;;;;5133851;27;20283;-71
2021/09/04 06:35:36;;;;;;;24.10;13.73;;;;;;;;;;5133872;27;20263;-72
2021/09/04 06:38:02;;;;;;;26.33;12.63;;;;;;;;;;5133999;27;20011;-72
2021/09/04 06:40:27;;;;;;;21.73;12.65;;;;;;;;;;5133970;27;20385;-71
2021/09/04 06:42:52;;;;;;;26.60;12.50;;;;;;;;;;5133666;27;20022;-71
2021/09/04 06:45:17;;;;;;;25.13;11.97;;;;;;;;;;5133732;27;20329;-71
2021/09/04 06:47:42;;;;;;;20.55;12.02;;;;;;;;;;5133855;27;20089;-72
2021/09/04 06:50:08;;;;;;;18.93;12.73;;;;;;;;;;5133902;27;20022;-71
2021/09/04 06:52:33;;;;;;;20.77;13.68;;;;;;;;;;5133516;27;20717;-72
2021/09/04 06:54:58;;;;;;;20.50;13.02;;;;;;;;;;5134253;27;20023;-72
2021/09/04 06:57:23;;;;;;;28.63;14.87;;;;;;;;;;5133558;27;20028;-72
2021/09/04 06:59:48;;;;;;;25.35;13.55;;;;;;;;;;5132331;27;20600;-72
2021/09/04 07:02:14;;;;;;;19.20;13.57;;;;;;;;;;5133140;27;20023;-72
2021/09/04 07:04:39;;;;;;;23.40;13.70;;;;;;;;;;5133623;27;20152;-72
2021/09/04 07:07:04;;;;;;;21.00;13.60;;;;;;;;;;5133650;27;20253;-72
2021/09/04 07:09:30;;;;;;;19.17;11.85;;;;;;;;;;5133250;27;20271;-72
2021/09/04 07:11:55;;;;;;;19.48;11.63;;;;;;;;;;5133109;27;20042;-72
2021/09/04 07:14:20;;;;;;;18.95;10.90;;;;;;;;;;5133069;27;20022;-72
2021/09/04 07:16:46;;;;;;;15.83;11.30;;;;;;;;;;5133202;27;20062;-72
2021/09/04 07:19:13;;;;;;;19.00;11.57;;;;;;;;;;5133437;27;20249;-73
2021/09/04 07:21:38;;;;;;;24.25;11.50;;;;;;;;;;5133005;27;20019;-72
2021/09/04 07:24:03;;;;;;;17.93;11.37;;;;;;;;;;5133220;27;20094;-74
2021/09/04 07:26:28;;;;;;;14.93;10.73;;;;;;;;;;5132964;27;20023;-72
2021/09/04 07:28:54;;;;;;;18.10;10.87;;;;;;;;;;5133524;27;20042;-72
2021/09/04 07:31:19;;;;;;;15.07;8.90;;;;;;;;;;5133003;27;20688;-72
2021/09/04 07:33:44;;;;;;;17.00;10.77;;;;;;;;;;5132763;27;20027;-72
2021/09/04 07:36:10;;;;;;;23.70;10.80;;;;;;;;;;5132779;27;20015;-72
2021/09/04 07:38:35;;;;;;;13.82;9.80;;;;;;;;;;5132682;27;20484;-72
2021/09/04 07:41:00;;;;;;;28.98;11.90;;;;;;;;;;5132709;27;20015;-73
2021/09/04 07:43:25;;;;;;;18.42;10.30;;;;;;;;;;5132299;27;20051;-72
2021/09/04 07:45:51;;;;;;;17.47;9.63;;;;;;;;;;5132661;27;20100;-73
2021/09/04 07:48:16;;;;;;;17.37;8.90;;;;;;;;;;5132620;27;20015;-71
2021/09/04 07:50:41;;;;;;;15.23;9.17;;;;;;;;;;5132554;27;20028;-70
2021/09/04 07:53:06;;;;;;;20.07;9.13;;;;;;;;;;5132152;27;20068;-71
2021/09/04 07:55:32;;;;;;;13.38;8.73;;;;;;;;;;5132139;27;20273;-71
2021/09/04 07:57:57;;;;;;;16.47;9.23;;;;;;;;;;5132403;27;20012;-71
2021/09/04 08:00:22;;;;;;;16.15;8.50;;;;;;;;;;5132242;27;20076;-71
2021/09/04 08:02:47;;;;;;;11.50;9.03;;;;;;;;;;5132131;27;20015;-71
2021/09/04 08:05:12;;;;;;;11.87;8.67;;;;;;;;;;5132269;27;20257;-72
2021/09/04 08:07:38;;;;;;;14.20;8.53;;;;;;;;;;5132446;27;20715;-71
2021/09/04 08:10:04;;;;;;;17.13;9.50;;;;;;;;;;5131848;27;20102;-71
2021/09/04 08:12:29;;;;;;;11.68;8.82;;;;;;;;;;5131677;27;20080;-71
2021/09/04 08:14:55;;;;;;;15.05;9.43;;;;;;;;;;5132100;27;20407;-71
2021/09/04 08:17:20;;;;;;;14.50;8.57;;;;;;;;;;5131883;27;20019;-71
2021/09/04 08:19:45;;;;;;;11.80;9.00;;;;;;;;;;5132055;27;20120;-71
2021/09/04 08:22:10;;;;;;;12.03;9.07;;;;;;;;;;5131593;27;20449;-72
2021/09/04 08:24:35;;;;;;;14.80;9.97;;;;;;;;;;5131740;27;20011;-71
2021/09/04 08:27:01;;;;;;;16.00;9.80;;;;;;;;;;5131935;27;20023;-70
2021/09/04 08:29:26;;;;;;;15.10;9.25;;;;;;;;;;5133430;27;20264;-70
2021/09/04 08:31:52;;;;;;;13.20;9.65;;;;;;;;;;5132481;27;20461;-70
2021/09/04 08:34:17;;;;;;;17.90;10.25;;;;;;;;;;5131795;27;20098;-70
2021/09/04 08:36:42;;;;;;;17.80;9.60;;;;;;;;;;5131892;27;20027;-73
2021/09/04 08:39:07;;;;;;;18.45;9.15;;;;;;;;;;5131723;27;20019;-73
2021/09/04 08:41:35;;;;;;;17.17;9.43;;;;;;;;;;5131483;27;20027;-72
2021/09/04 08:44:00;;;;;;;15.63;8.52;;;;;;;;;;5131691;27;20426;-73
2021/09/04 08:46:30;;;;;;;16.37;9.63;;;;;;;;;;5131567;27;20015;-73
2021/09/04 08:48:55;;;;;;;12.68;9.20;;;;;;;;;;5131680;27;20473;-73
2021/09/04 08:51:21;;;;;;;17.38;8.68;;;;;;;;;;5131291;27;20079;-73
2021/09/04 08:53:46;;;;;;;14.50;9.80;;;;;;;;;;5131259;27;20452;-72
2021/09/04 08:56:11;;;;;;;14.13;9.90;;;;;;;;;;5131309;27;20031;-72
2021/09/04 08:58:37;;;;;;;13.93;10.02;;;;;;;;;;5131383;27;20050;-73
2021/09/04 09:01:02;;;;;;;16.13;8.65;;;;;;;;;;5131423;27;20023;-72
2021/09/04 09:03:31;;;;;;;13.98;9.30;;;;;;;;;;5130975;28;20067;-73
2021/09/04 09:05:58;;;;;;;16.52;9.60;;;;;;;;;;5131255;28;20023;-74
2021/09/04 09:08:25;;;;;;;17.63;9.50;;;;;;;;;;5131028;28;20094;-73
2021/09/04 09:10:52;;;;;;;22.70;10.55;;;;;;;;;;5131606;28;20489;-73
2021/09/04 09:13:18;;;;;;;18.88;10.30;;;;;;;;;;5130988;28;20015;-72
2021/09/04 09:15:44;;;;;;;16.98;9.88;;;;;;;;;;5131296;28;20465;-73
2021/09/04 09:18:10;;;;;;;17.63;9.80;;;;;;;;;;5131298;28;20099;-73
2021/09/04 09:20:36;;;;;;;21.42;9.60;;;;;;;;;;5131171;28;20068;-72
2021/09/04 09:23:03;;;;;;;15.85;9.65;;;;;;;;;;5133733;27;20019;-73
2021/09/04 09:25:31;;;;;;;21.42;9.90;;;;;;;;;;5135619;27;20106;-72
2021/09/04 09:28:16;;;;;;;14.63;8.73;;;;;;;;;;5135491;27;20027;-73
2021/09/04 09:30:45;;;;;;;16.90;9.05;;;;;;;;;;5135458;27;20072;-72
2021/09/04 09:33:11;;;;;;;13.55;9.35;;;;;;;;;;5134969;27;20426;-72
2021/09/04 09:35:41;;;;;;;16.17;9.52;;;;;;;;;;5135118;27;20072;-73
2021/09/04 09:38:07;;;;;;;18.13;10.45;;;;;;;;;;5135217;27;20556;-72
2021/09/04 09:40:33;;;;;;;13.50;8.85;;;;;;;;;;5135076;27;20096;-72
2021/09/04 09:42:59;;;;;;;19.63;10.05;;;;;;;;;;5134842;27;20469;-72
2021/09/04 09:45:40;;;;;;;16.58;10.52;;;;;;;;;;5134784;27;20086;-72
2021/09/04 09:48:05;;;;;;;24.23;10.57;;;;;;;;;;5134995;27;20026;-73
2021/09/04 09:50:32;;;;;;;13.83;9.87;;;;;;;;;;5134816;27;20477;-72
2021/09/04 09:52:58;;;;;;;15.25;10.07;;;;;;;;;;5096822;28;20269;-72
2021/09/04 09:55:23;;;;;;;16.00;9.60;;;;;;;;;;5095628;28;20390;-72
2021/09/04 09:57:48;;;;;;;13.73;8.93;;;;;;;;;;5098850;28;20042;-73
2021/09/04 10:00:14;;;;;;;15.30;10.85;;;;;;;;;;5109636;28;20019;-72
2021/09/04 10:02:39;;;;;;;16.90;9.88;;;;;;;;;;5096249;28;20436;-73
2021/09/04 10:05:05;;;;;;;14.45;9.32;;;;;;;;;;5093741;28;20024;-72
2021/09/04 10:07:30;;;;;;;19.45;11.23;;;;;;;;;;5093571;28;20699;-72
2021/09/04 10:09:55;;;;;;;20.60;10.23;;;;;;;;;;5093622;28;20555;-72
2021/09/04 10:12:21;;;;;;;16.40;10.02;;;;;;;;;;5102848;28;20028;-72
2021/09/04 10:14:47;;;;;;;16.10;9.10;;;;;;;;;;5095609;28;20141;-72
2021/09/04 10:17:12;;;;;;;15.30;9.93;;;;;;;;;;5104006;28;20099;-72
2021/09/04 10:19:39;;;;;;;19.35;8.95;;;;;;;;;;5093491;28;20026;-73
2021/09/04 10:22:06;;;;;;;12.63;8.68;;;;;;;;;;5094121;28;20039;-72
2021/09/04 10:24:43;;;;;;;14.88;8.52;;;;;;;;;;5103785;28;20020;-72
2021/09/04 10:27:09;;;;;;;13.70;7.97;;;;;;;;;;5093292;28;20420;-72
2021/09/04 10:29:42;;;;;;;13.75;8.48;;;;;;;;;;5093176;28;20016;-72
2021/09/04 10:32:07;;;;;;;13.55;9.55;;;;;;;;;;5092976;28;20425;-72
2021/09/04 10:34:39;;;;;;;14.50;8.45;;;;;;;;;;5092814;28;20016;-72
2021/09/04 10:37:05;;;;;;;15.00;8.73;;;;;;;;;;5093070;28;20020;-72
2021/09/04 10:39:49;;;;;;;13.17;7.90;;;;;;;;;;5107725;28;20110;-73
2021/09/04 10:42:16;;;;;;;17.58;7.85;;;;;;;;;;5113022;28;20273;-73
2021/09/04 10:44:42;;;;;;;18.17;9.13;;;;;;;;;;5113288;28;20016;-72
2021/09/04 10:47:11;;;;;;;15.23;9.05;;;;;;;;;;5113277;28;20019;-72
2021/09/04 10:49:48;;;;;;;14.75;8.40;;;;;;;;;;5113332;28;20378;-73
2021/09/04 10:52:13;;;;;;;12.45;8.95;;;;;;;;;;5108303;28;20015;-72
2021/09/04 10:54:41;;;;;;;17.58;10.18;;;;;;;;;;5092576;28;20034;-72
2021/09/04 10:57:16;;;;;;;12.15;8.98;;;;;;;;;;5092650;28;20320;-72
2021/09/04 10:59:57;;;;;;;11.93;8.20;;;;;;;;;;5092691;28;20458;-72
2021/09/04 11:02:22;;;;;;;15.07;9.18;;;;;;;;;;5092083;28;20123;-72
2021/09/04 11:04:57;;;;;;;12.87;8.67;;;;;;;;;;5092503;28;20395;-72
2021/09/04 11:07:40;;;;;;;13.73;8.68;;;;;;;;;;5105758;28;20019;-72
2021/09/04 11:10:22;;;;;;;14.30;9.32;;;;;;;;;;5110357;27;20023;-73
2021/09/04 11:13:03;;;;;;;15.25;8.18;;;;;;;;;;5115106;27;20034;-73
2021/09/04 11:15:28;;;;;;;12.18;8.35;;;;;;;;;;5112633;28;20057;-73
2021/09/04 11:17:53;;;;;;;14.35;9.07;;;;;;;;;;5112870;28;20024;-72
2021/09/04 11:20:19;;;;;;;12.93;9.27;;;;;;;;;;5111980;28;20019;-73
2021/09/04 11:22:45;;;;;;;14.93;8.15;;;;;;;;;;5112353;28;20280;-72
2021/09/04 11:25:12;;;;;;;11.82;7.85;;;;;;;;;;5112473;28;20027;-73
2021/09/04 11:27:43;;;;;;;9.98;8.07;;;;;;;;;;5112584;28;20090;-72
2021/09/04 11:30:08;;;;;;;15.80;9.13;;;;;;;;;;5112440;28;20018;-72
2021/09/04 11:32:33;;;;;;;12.68;8.45;;;;;;;;;;5112066;28;20019;-72
2021/09/04 11:34:59;;;;;;;14.97;8.50;;;;;;;;;;5101027;28;20035;-73
2021/09/04 11:37:35;;;;;;;13.65;8.40;;;;;;;;;;5073697;28;20259;-72
2021/09/04 11:40:00;;;;;;;13.43;8.82;;;;;;;;;;5091902;28;20024;-73
2021/09/04 11:42:26;;;;;;;16.77;8.10;;;;;;;;;;5091402;28;20080;-73
2021/09/04 11:44:53;;;;;;;15.38;9.38;;;;;;;;;;5073155;28;20100;-72
2021/09/04 11:47:19;;;;;;;13.35;8.10;;;;;;;;;;5091620;28;20535;-72
2021/09/04 11:49:48;;;;;;;11.93;7.95;;;;;;;;;;5109176;28;20054;-72
2021/09/04 11:52:17;;;;;;;15.52;8.50;;;;;;;;;;5111695;28;20055;-72
2021/09/04 11:54:42;;;;;;;16.25;8.57;;;;;;;;;;5111939;28;20022;-73
2021/09/04 11:57:23;;;;;;;15.00;8.50;;;;;;;;;;5112056;28;20028;-72
2021/09/04 11:59:55;;;;;;;18.73;9.23;;;;;;;;;;5112241;28;20024;-73
2021/09/04 12:02:21;;;;;;;21.83;10.32;;;;;;;;;;5105058;28;20027;-73
2021/09/04 12:04:46;;;;;;;17.23;10.70;;;;;;;;;;5073253;28;20023;-72
2021/09/04 12:07:11;;;;;;;13.87;9.50;;;;;;;;;;5091474;28;20448;-72
2021/09/04 12:09:36;;;;;;;16.17;10.30;;;;;;;;;;5091330;28;20262;-72
2021/09/04 12:12:02;;;;;;;13.68;9.43;;;;;;;;;;5091058;28;20012;-73
2021/09/04 12:14:30;;;;;;;15.68;8.98;;;;;;;;;;5091092;28;20038;-73
2021/09/04 12:16:55;;;;;;;15.13;9.35;;;;;;;;;;5101871;28;20023;-73
2021/09/04 12:19:21;;;;;;;14.50;8.77;;;;;;;;;;5104586;28;20431;-72
2021/09/04 12:21:51;;;;;;;12.73;9.20;;;;;;;;;;5091039;28;20103;-72
2021/09/04 12:24:16;;;;;;;13.60;9.18;;;;;;;;;;5090874;28;20023;-73
2021/09/04 12:26:51;;;;;;;16.40;9.63;;;;;;;;;;5090902;28;20016;-72
2021/09/04 12:29:16;;;;;;;15.63;10.25;;;;;;;;;;5090960;28;20073;-72
2021/09/04 12:31:42;;;;;;;15.63;9.53;;;;;;;;;;5090742;28;20023;-72
2021/09/04 12:34:07;;;;;;;19.80;9.65;;;;;;;;;;5111518;28;20019;-72
2021/09/04 12:36:32;;;;;;;17.47;10.10;;;;;;;;;;5111288;28;20054;-72
2021/09/04 12:38:58;;;;;;;21.92;10.45;;;;;;;;;;5111281;28;20728;-72
2021/09/04 12:41:31;;;;;;;14.57;9.25;;;;;;;;;;5111208;28;20032;-72
2021/09/04 12:44:00;;;;;;;13.00;9.07;;;;;;;;;;5102275;28;20027;-72
2021/09/04 12:46:29;;;;;;;14.43;8.10;;;;;;;;;;5090762;28;20024;-73
2021/09/04 12:48:55;;;;;;;15.35;8.95;;;;;;;;;;5098252;28;20028;-73
2021/09/04 12:51:20;;;;;;;16.35;9.43;;;;;;;;;;5111094;28;20071;-73
2021/09/04 12:53:59;;;;;;;16.38;9.35;;;;;;;;;;5110730;28;20023;-72
2021/09/04 12:56:38;;;;;;;12.00;8.57;;;;;;;;;;5094228;28;20073;-72
2021/09/04 12:59:04;;;;;;;13.70;9.10;;;;;;;;;;5105119;28;20023;-72
2021/09/04 13:01:30;;;;;;;16.58;8.88;;;;;;;;;;5110844;28;20695;-72
2021/09/04 13:03:55;;;;;;;14.38;9.30;;;;;;;;;;5092354;28;20051;-72
2021/09/04 13:06:20;;;;;;;12.63;8.90;;;;;;;;;;5110950;28;20012;-72
2021/09/04 13:08:45;;;;;;;16.83;9.30;;;;;;;;;;5110917;28;20516;-72
2021/09/04 13:11:10;;;;;;;14.00;8.33;;;;;;;;;;5111118;28;20262;-72
2021/09/04 13:13:36;;;;;;;15.10;9.63;;;;;;;;;;5092360;28;20101;-72
2021/09/04 13:16:01;;;;;;;16.83;9.30;;;;;;;;;;5090462;28;20351;-72
2021/09/04 13:18:26;;;;;;;15.10;8.97;;;;;;;;;;5090508;28;20023;-72
2021/09/04 13:20:51;;;;;;;17.47;9.37;;;;;;;;;;5090578;28;20062;-72
2021/09/04 13:23:16;;;;;;;13.70;9.20;;;;;;;;;;5072044;28;20270;-72
2021/09/04 13:25:42;;;;;;;12.90;9.35;;;;;;;;;;5090255;28;20546;-74
2021/09/04 13:28:07;;;;;;;18.20;9.45;;;;;;;;;;5092349;28;20061;-72
2021/09/04 13:30:32;;;;;;;16.35;9.82;;;;;;;;;;5110676;28;20026;-71
2021/09/04 13:32:57;;;;;;;12.60;8.27;;;;;;;;;;5110247;28;20486;-72
2021/09/04 13:35:22;;;;;;;19.10;9.18;;;;;;;;;;5110599;28;20094;-71
2021/09/04 13:37:48;;;;;;;15.18;8.60;;;;;;;;;;5110524;28;20466;-71
2021/09/04 13:40:13;;;;;;;17.42;10.05;;;;;;;;;;5110701;28;20027;-71
2021/09/04 13:42:38;;;;;;;13.20;8.85;;;;;;;;;;5110320;28;20015;-72
2021/09/04 13:45:04;;;;;;;12.30;8.87;;;;;;;;;;5102090;28;20668;-71
2021/09/04 13:47:29;;;;;;;13.73;8.80;;;;;;;;;;5093573;28;20254;-72
2021/09/04 13:49:54;;;;;;;14.50;9.20;;;;;;;;;;5110843;28;20031;-72
2021/09/04 13:52:19;;;;;;;15.20;8.65;;;;;;;;;;5110877;28;20040;-72
2021/09/04 13:54:45;;;;;;;12.50;8.05;;;;;;;;;;5110343;28;20024;-71
2021/09/04 13:57:10;;;;;;;16.90;8.93;;;;;;;;;;5110589;28;20030;-71
2021/09/04 13:59:35;;;;;;;11.57;7.93;;;;;;;;;;5110410;28;20485;-72
2021/09/04 14:02:00;;;;;;;18.07;9.17;;;;;;;;;;5094090;28;20286;-71
2021/09/04 14:04:26;;;;;;;12.68;7.93;;;;;;;;;;5089914;28;20020;-71
2021/09/04 14:06:51;;;;;;;14.90;8.77;;;;;;;;;;5089670;28;20024;-71
2021/09/04 14:09:16;;;;;;;15.23;8.60;;;;;;;;;;5092784;28;20274;-71
2021/09/04 14:11:41;;;;;;;12.70;8.00;;;;;;;;;;5093590;28;20423;-71
2021/09/04 14:14:06;;;;;;;15.53;7.50;;;;;;;;;;5096501;28;20026;-71
2021/09/04 14:16:32;;;;;;;15.47;8.53;;;;;;;;;;5122000;27;20260;-71